Time;durP1;ratioP1;P1;durP2;ratioP2;P2;SDS_P1;SDS_P2;PMS_P1;PMS_P2;Temp;Humidity;BMP_temperature;BMP_pressure;BME280_temperature;BME280_humidity;BME280_pressure;Samples;Min_cycle;Max_cycle;Signal;HPM_P1;HPM_P2
2021/05/12 00:00:42;;;;;;;4.28;1.92;;;;;;;;;;143736;627;46012;-84
2021/05/12 00:03:11;;;;;;;5.72;1.95;;;;;;;;;;143733;563;47020;-84
2021/05/12 00:05:38;;;;;;;4.97;1.70;;;;;;;;;;143733;570;46026;-84
2021/05/12 00:08:09;;;;;;;4.07;1.65;;;;;;;;;;143738;577;45037;-83
2021/05/12 00:10:52;;;;;;;2.12;1.20;;;;;;;;;;143735;571;47020;-84
2021/05/12 00:13:42;;;;;;;5.43;1.23;;;;;;;;;;143736;601;46048;-85
2021/05/12 00:16:20;;;;;;;4.35;1.35;;;;;;;;;;143735;591;46012;-85
2021/05/12 00:19:16;;;;;;;5.40;1.87;;;;;;;;;;143737;640;46020;-84
2021/05/12 00:21:51;;;;;;;6.37;1.42;;;;;;;;;;143737;673;47018;-84
2021/05/12 00:24:40;;;;;;;7.15;2.30;;;;;;;;;;143733;590;47022;-84
2021/05/12 00:27:18;;;;;;;5.37;1.55;;;;;;;;;;143734;567;46013;-86
2021/05/12 00:29:49;;;;;;;4.53;1.73;;;;;;;;;;143736;685;46020;-84
2021/05/12 00:32:21;;;;;;;6.18;2.22;;;;;;;;;;143736;693;46018;-83
2021/05/12 00:34:51;;;;;;;5.32;1.95;;;;;;;;;;143733;572;47022;-83
2021/05/12 00:37:22;;;;;;;5.95;1.77;;;;;;;;;;143733;614;46012;-84
2021/05/12 00:39:53;;;;;;;6.32;2.00;;;;;;;;;;143736;701;46020;-84
2021/05/12 00:42:26;;;;;;;3.22;1.42;;;;;;;;;;143738;722;46021;-85
2021/05/12 00:44:57;;;;;;;2.50;1.40;;;;;;;;;;143733;661;47023;-85
2021/05/12 00:47:30;;;;;;;5.60;1.70;;;;;;;;;;143733;700;46012;-85
2021/05/12 00:50:03;;;;;;;3.22;1.50;;;;;;;;;;143735;722;46021;-84
2021/05/12 00:52:39;;;;;;;6.70;1.87;;;;;;;;;;143737;732;46020;-84
2021/05/12 00:55:13;;;;;;;3.47;1.45;;;;;;;;;;143733;563;47022;-85
2021/05/12 00:57:53;;;;;;;4.55;2.00;;;;;;;;;;143733;569;46013;-85
2021/05/12 01:00:28;;;;;;;2.80;1.05;;;;;;;;;;143736;618;46020;-85
2021/05/12 01:02:54;;;;;;;3.28;1.55;;;;;;;;;;143734;600;46020;-85
2021/05/12 01:05:30;;;;;;;3.72;0.90;;;;;;;;;;143731;651;47022;-84
2021/05/12 01:08:00;;;;;;;3.62;1.10;;;;;;;;;;143733;587;46920;-86
2021/05/12 01:10:32;;;;;;;3.05;1.08;;;;;;;;;;143734;566;46020;-85
2021/05/12 01:13:02;;;;;;;3.03;1.05;;;;;;;;;;143733;617;47018;-85
2021/05/12 01:15:35;;;;;;;1.40;0.75;;;;;;;;;;143732;665;46023;-84
2021/05/12 01:18:23;;;;;;;2.10;0.98;;;;;;;;;;143732;666;46012;-85
2021/05/12 01:21:06;;;;;;;1.75;0.80;;;;;;;;;;143733;638;47021;-84
2021/05/12 01:23:36;;;;;;;2.78;1.30;;;;;;;;;;143733;575;46012;-86
2021/05/12 01:26:12;;;;;;;2.35;1.35;;;;;;;;;;143732;617;47022;-84
2021/05/12 01:28:48;;;;;;;2.12;1.20;;;;;;;;;;143731;565;46012;-84
2021/05/12 01:31:30;;;;;;;3.03;0.80;;;;;;;;;;143734;606;46020;-84
2021/05/12 01:34:05;;;;;;;7.10;0.95;;;;;;;;;;143734;583;47019;-84
2021/05/12 01:36:52;;;;;;;1.92;0.88;;;;;;;;;;143732;654;47023;-84
2021/05/12 01:39:28;;;;;;;2.55;0.90;;;;;;;;;;143732;575;46012;-84
2021/05/12 01:42:09;;;;;;;3.60;1.10;;;;;;;;;;143734;570;46021;-84
2021/05/12 01:44:40;;;;;;;5.43;1.48;;;;;;;;;;143734;587;46020;-85
2021/05/12 01:47:24;;;;;;;5.87;1.52;;;;;;;;;;143732;646;47022;-84
2021/05/12 01:49:59;;;;;;;7.37;1.35;;;;;;;;;;143730;612;46013;-85
2021/05/12 01:52:36;;;;;;;6.10;1.20;;;;;;;;;;143731;573;47020;-84
2021/05/12 01:55:09;;;;;;;4.95;1.42;;;;;;;;;;143734;598;46018;-85
2021/05/12 01:57:50;;;;;;;;;;;;;;;;;;;;;
2021/05/12 02:00:44;;;;;;;9.43;1.37;;;;;;;;;;143735;587;46020;-84
2021/05/12 02:03:11;;;;;;;2.25;1.23;;;;;;;;;;143733;691;46020;-85
2021/05/12 02:05:47;;;;;;;4.53;1.20;;;;;;;;;;143736;577;46020;-85
2021/05/12 02:08:21;;;;;;;5.05;2.28;;;;;;;;;;143732;602;46022;-84
2021/05/12 02:10:52;;;;;;;3.67;2.37;;;;;;;;;;143732;649;46012;-84
2021/05/12 02:13:33;;;;;;;5.15;2.37;;;;;;;;;;143732;574;47021;-83
2021/05/12 02:16:14;;;;;;;7.25;1.40;;;;;;;;;;143733;587;46012;-84
2021/05/12 02:18:57;;;;;;;6.65;1.73;;;;;;;;;;143730;589;47022;-84
2021/05/12 02:21:34;;;;;;;7.37;1.62;;;;;;;;;;143730;614;47020;-84
2021/05/12 02:24:04;;;;;;;3.12;1.10;;;;;;;;;;143734;637;46020;-85
2021/05/12 02:26:40;;;;;;;6.10;1.20;;;;;;;;;;143734;640;47020;-84
2021/05/12 02:29:09;;;;;;;2.97;1.17;;;;;;;;;;143732;611;46023;-84
2021/05/12 02:31:38;;;;;;;7.60;1.67;;;;;;;;;;143732;569;46012;-84
2021/05/12 02:34:08;;;;;;;7.00;1.35;;;;;;;;;;143731;627;47020;-85
2021/05/12 02:36:45;;;;;;;2.87;1.20;;;;;;;;;;143734;655;46018;-84
2021/05/12 02:39:16;;;;;;;3.80;1.50;;;;;;;;;;143732;627;46022;-86
2021/05/12 02:41:49;;;;;;;2.60;1.25;;;;;;;;;;143731;587;46013;-85
2021/05/12 02:44:24;;;;;;;5.23;1.13;;;;;;;;;;143734;596;46020;-84
2021/05/12 02:46:56;;;;;;;2.40;1.00;;;;;;;;;;143734;596;46012;-86
2021/05/12 02:49:35;;;;;;;7.62;1.90;;;;;;;;;;143734;577;46022;-84
2021/05/12 02:52:07;;;;;;;4.50;0.80;;;;;;;;;;143732;597;46012;-83
2021/05/12 02:54:36;;;;;;;4.00;1.52;;;;;;;;;;143733;609;46020;-85
2021/05/12 02:57:13;;;;;;;6.82;1.12;;;;;;;;;;143735;639;46019;-85
2021/05/12 02:59:50;;;;;;;7.70;1.50;;;;;;;;;;143731;574;47020;-85
2021/05/12 03:02:18;;;;;;;3.58;1.87;;;;;;;;;;143732;591;46012;-85
2021/05/12 03:04:56;;;;;;;5.50;1.67;;;;;;;;;;143732;566;47021;-84
2021/05/12 03:07:30;;;;;;;6.50;1.80;;;;;;;;;;143733;615;46012;-83
2021/05/12 03:10:03;;;;;;;4.40;1.70;;;;;;;;;;143734;582;46020;-84
2021/05/12 03:12:45;;;;;;;2.60;1.70;;;;;;;;;;143732;599;46021;-85
2021/05/12 03:15:16;;;;;;;6.53;2.30;;;;;;;;;;143732;591;46018;-84
2021/05/12 03:18:01;;;;;;;9.98;2.58;;;;;;;;;;143734;581;46019;-83
2021/05/12 03:20:41;;;;;;;3.65;1.20;;;;;;;;;;143732;564;47023;-83
2021/05/12 03:23:11;;;;;;;4.45;1.40;;;;;;;;;;143733;596;46012;-83
2021/05/12 03:25:43;;;;;;;4.45;1.70;;;;;;;;;;143733;578;46020;-84
2021/05/12 03:28:24;;;;;;;;;;;;;;;;;;;;;
2021/05/12 03:31:07;;;;;;;13.88;1.87;;;;;;;;;;143731;617;46024;-83
2021/05/12 03:33:44;;;;;;;9.95;1.65;;;;;;;;;;143733;592;47021;-83
2021/05/12 03:36:18;;;;;;;6.72;1.75;;;;;;;;;;143735;591;46020;-83
2021/05/12 03:38:46;;;;;;;9.75;1.58;;;;;;;;;;143735;648;47012;-85
2021/05/12 03:41:33;;;;;;;3.10;1.42;;;;;;;;;;143731;576;47022;-84
2021/05/12 03:44:04;;;;;;;19.08;2.25;;;;;;;;;;143730;576;46012;-85
2021/05/12 03:46:37;;;;;;;8.30;1.40;;;;;;;;;;143734;592;46020;-84
2021/05/12 03:49:06;;;;;;;11.10;1.70;;;;;;;;;;143735;588;46012;-84
2021/05/12 03:51:45;;;;;;;9.23;2.15;;;;;;;;;;143732;603;47022;-84
2021/05/12 03:54:25;;;;;;;8.85;1.55;;;;;;;;;;143733;569;46020;-85
2021/05/12 03:56:54;;;;;;;10.02;1.80;;;;;;;;;;143730;583;47021;-85
2021/05/12 03:59:30;;;;;;;5.43;1.00;;;;;;;;;;143734;618;46012;-83
2021/05/12 04:02:00;;;;;;;5.87;1.60;;;;;;;;;;143731;589;47022;-83
2021/05/12 04:04:30;;;;;;;12.05;1.55;;;;;;;;;;143732;581;46012;-84
2021/05/12 04:06:58;;;;;;;10.15;1.67;;;;;;;;;;143732;639;47020;-84
2021/05/12 04:09:25;;;;;;;7.07;1.92;;;;;;;;;;143735;584;46020;-83
2021/05/12 04:11:55;;;;;;;10.98;2.53;;;;;;;;;;143731;610;47023;-83
2021/05/12 04:14:28;;;;;;;7.65;2.83;;;;;;;;;;143731;604;46012;-83
2021/05/12 04:16:57;;;;;;;14.80;2.65;;;;;;;;;;143737;588;46020;-84
2021/05/12 04:19:32;;;;;;;6.95;2.67;;;;;;;;;;143731;572;46018;-84
2021/05/12 04:22:00;;;;;;;18.35;2.33;;;;;;;;;;143730;582;47020;-85
2021/05/12 04:24:27;;;;;;;19.25;3.30;;;;;;;;;;143730;636;46014;-85
2021/05/12 04:26:58;;;;;;;12.50;2.85;;;;;;;;;;143731;586;47021;-83
2021/05/12 04:29:36;;;;;;;9.95;2.42;;;;;;;;;;143737;591;46012;-83
2021/05/12 04:32:04;;;;;;;16.10;1.98;;;;;;;;;;143731;617;47022;-84
2021/05/12 04:34:34;;;;;;;9.77;2.00;;;;;;;;;;143733;604;46020;-84
2021/05/12 04:37:02;;;;;;;6.18;2.30;;;;;;;;;;143732;595;46020;-84
2021/05/12 04:39:28;;;;;;;15.32;3.12;;;;;;;;;;143734;619;46012;-85
2021/05/12 04:41:55;;;;;;;7.78;2.83;;;;;;;;;;143733;585;46048;-84
2021/05/12 04:44:25;;;;;;;10.52;2.60;;;;;;;;;;143731;573;46020;-83
2021/05/12 04:46:55;;;;;;;14.18;2.97;;;;;;;;;;143733;579;47020;-82
2021/05/12 04:49:25;;;;;;;9.25;2.62;;;;;;;;;;143732;696;46021;-83
2021/05/12 04:51:51;;;;;;;10.48;3.28;;;;;;;;;;143734;585;46020;-83
2021/05/12 04:54:18;;;;;;;9.30;2.95;;;;;;;;;;143732;563;46020;-83
2021/05/12 04:56:45;;;;;;;11.48;2.40;;;;;;;;;;143733;569;46021;-84
2021/05/12 04:59:12;;;;;;;4.87;2.28;;;;;;;;;;143734;570;46012;-84
2021/05/12 05:01:39;;;;;;;10.18;1.98;;;;;;;;;;143730;589;47022;-84
2021/05/12 05:04:05;;;;;;;12.65;2.37;;;;;;;;;;143732;564;46014;-84
2021/05/12 05:06:33;;;;;;;7.93;1.42;;;;;;;;;;143734;577;46020;-85
2021/05/12 05:09:01;;;;;;;11.77;2.78;;;;;;;;;;143734;637;46012;-84
2021/05/12 05:11:28;;;;;;;8.40;2.37;;;;;;;;;;143733;602;46022;-84
2021/05/12 05:13:55;;;;;;;11.12;2.30;;;;;;;;;;143729;575;47012;-83
2021/05/12 05:16:21;;;;;;;17.15;2.92;;;;;;;;;;143731;621;47020;-85
2021/05/12 05:18:48;;;;;;;14.63;2.42;;;;;;;;;;143735;564;47021;-84
2021/05/12 05:21:16;;;;;;;12.68;2.80;;;;;;;;;;143729;601;47023;-86
2021/05/12 05:23:43;;;;;;;20.52;4.43;;;;;;;;;;143731;603;46012;-84
2021/05/12 05:26:10;;;;;;;16.20;2.08;;;;;;;;;;143735;592;46021;-84
2021/05/12 05:28:37;;;;;;;8.23;2.30;;;;;;;;;;143734;595;46020;-83
2021/05/12 05:31:05;;;;;;;16.77;2.80;;;;;;;;;;143730;565;47022;-84
2021/05/12 05:33:31;;;;;;;10.80;2.60;;;;;;;;;;143734;576;46020;-85
2021/05/12 05:35:59;;;;;;;12.18;3.72;;;;;;;;;;143735;642;46020;-86
2021/05/12 05:38:27;;;;;;;10.60;2.80;;;;;;;;;;143733;602;46020;-85
2021/05/12 05:41:01;;;;;;;5.55;2.28;;;;;;;;;;143731;564;47022;-84
2021/05/12 05:43:33;;;;;;;9.00;2.62;;;;;;;;;;143732;605;46012;-84
2021/05/12 05:45:59;;;;;;;7.72;2.22;;;;;;;;;;143734;569;46020;-85
2021/05/12 05:48:26;;;;;;;14.32;3.55;;;;;;;;;;143735;571;46019;-85
2021/05/12 05:50:53;;;;;;;10.80;2.37;;;;;;;;;;143732;564;47020;-85
2021/05/12 05:53:20;;;;;;;11.90;2.42;;;;;;;;;;143732;563;46020;-85
2021/05/12 05:55:48;;;;;;;7.95;2.62;;;;;;;;;;143732;613;47021;-85
2021/05/12 05:58:14;;;;;;;9.00;2.95;;;;;;;;;;143735;621;46012;-84
2021/05/12 06:00:41;;;;;;;5.75;2.12;;;;;;;;;;143734;572;46022;-86
2021/05/12 06:03:09;;;;;;;8.13;2.50;;;;;;;;;;143734;567;46020;-86
2021/05/12 06:05:36;;;;;;;8.73;2.80;;;;;;;;;;143734;569;46020;-86
2021/05/12 06:08:03;;;;;;;7.35;2.55;;;;;;;;;;143733;602;46012;-85
2021/05/12 06:10:30;;;;;;;7.10;3.10;;;;;;;;;;143731;616;46913;-84
2021/05/12 06:12:57;;;;;;;16.75;3.12;;;;;;;;;;143734;607;46014;-85
2021/05/12 06:15:23;;;;;;;11.80;3.12;;;;;;;;;;143733;585;46020;-84
2021/05/12 06:17:51;;;;;;;9.57;2.15;;;;;;;;;;143733;598;46013;-84
2021/05/12 06:20:17;;;;;;;11.63;2.55;;;;;;;;;;143732;626;46014;-85
2021/05/12 06:22:44;;;;;;;6.68;2.75;;;;;;;;;;143731;707;46920;-87
2021/05/12 06:25:12;;;;;;;13.95;2.22;;;;;;;;;;143732;605;47021;-86
2021/05/12 06:27:39;;;;;;;4.55;2.35;;;;;;;;;;143730;662;47012;-88
2021/05/12 06:30:07;;;;;;;7.37;2.67;;;;;;;;;;143731;589;47020;-86
2021/05/12 06:32:34;;;;;;;11.38;2.53;;;;;;;;;;143733;598;46012;-87
2021/05/12 06:35:01;;;;;;;8.02;2.75;;;;;;;;;;143732;655;47020;-85
2021/05/12 06:37:29;;;;;;;8.70;1.77;;;;;;;;;;143735;668;46020;-86
2021/05/12 06:39:56;;;;;;;7.45;2.25;;;;;;;;;;143730;569;47022;-86
2021/05/12 06:42:23;;;;;;;11.15;2.92;;;;;;;;;;143732;757;46012;-89
2021/05/12 06:44:49;;;;;;;12.07;2.42;;;;;;;;;;143735;604;46020;-87
2021/05/12 06:47:16;;;;;;;8.45;2.42;;;;;;;;;;143734;576;46012;-86
2021/05/12 06:49:42;;;;;;;6.53;2.33;;;;;;;;;;143733;640;46020;-89
2021/05/12 06:52:10;;;;;;;8.70;2.00;;;;;;;;;;143731;670;46020;-87
2021/05/12 06:54:37;;;;;;;7.62;2.20;;;;;;;;;;143733;577;46021;-87
2021/05/12 06:57:05;;;;;;;10.52;2.28;;;;;;;;;;143736;587;46012;-88
2021/05/12 06:59:32;;;;;;;7.55;1.80;;;;;;;;;;143731;620;47022;-87
2021/05/12 07:01:59;;;;;;;6.60;1.73;;;;;;;;;;143731;672;46012;-87
2021/05/12 07:04:25;;;;;;;6.85;2.25;;;;;;;;;;143733;574;47020;-88
2021/05/12 07:06:52;;;;;;;4.43;2.17;;;;;;;;;;143733;569;46012;-89
2021/05/12 07:09:19;;;;;;;8.85;1.62;;;;;;;;;;143732;638;46022;-89
2021/05/12 07:11:46;;;;;;;4.95;2.20;;;;;;;;;;143732;592;46014;-87
2021/05/12 07:14:13;;;;;;;8.45;1.73;;;;;;;;;;143735;615;46020;-92
2021/05/12 07:16:39;;;;;;;9.48;1.83;;;;;;;;;;143735;634;46019;-88
2021/05/12 07:19:07;;;;;;;11.57;2.37;;;;;;;;;;143734;575;46014;-87
2021/05/12 07:21:37;;;;;;;2.83;1.35;;;;;;;;;;143732;639;46919;-89
2021/05/12 07:24:04;;;;;;;4.32;1.98;;;;;;;;;;143733;592;47021;-89
2021/05/12 07:26:34;;;;;;;8.60;1.70;;;;;;;;;;143736;596;46021;-87
2021/05/12 07:29:01;;;;;;;5.62;1.90;;;;;;;;;;143733;575;47020;-84
2021/05/12 07:31:27;;;;;;;6.80;1.87;;;;;;;;;;143732;589;46012;-86
2021/05/12 07:33:54;;;;;;;4.28;1.52;;;;;;;;;;143736;600;47014;-88
2021/05/12 07:36:21;;;;;;;4.87;1.95;;;;;;;;;;143734;776;46012;-88
2021/05/12 07:38:48;;;;;;;12.35;1.75;;;;;;;;;;143732;577;46022;-86
2021/05/12 07:41:14;;;;;;;7.53;2.03;;;;;;;;;;143732;616;46012;-88
2021/05/12 07:43:42;;;;;;;6.25;1.70;;;;;;;;;;143735;589;46020;-88
2021/05/12 07:46:17;;;;;;;6.15;2.20;;;;;;;;;;143735;646;46019;-87
2021/05/12 07:48:47;;;;;;;6.32;1.95;;;;;;;;;;143733;586;46014;-88
2021/05/12 07:51:13;;;;;;;12.70;1.90;;;;;;;;;;143730;636;46020;-88
2021/05/12 07:53:43;;;;;;;4.20;1.65;;;;;;;;;;143733;666;46020;-87
2021/05/12 07:56:10;;;;;;;5.12;1.50;;;;;;;;;;143734;663;46012;-86
2021/05/12 07:58:37;;;;;;;5.55;1.83;;;;;;;;;;143731;564;47022;-87
2021/05/12 08:01:17;;;;;;;7.95;1.58;;;;;;;;;;143732;609;47020;-87
2021/05/12 08:03:44;;;;;;;9.30;2.22;;;;;;;;;;143735;567;46021;-89
2021/05/12 08:06:10;;;;;;;4.82;2.00;;;;;;;;;;143735;647;46020;-89
2021/05/12 08:08:38;;;;;;;8.57;1.17;;;;;;;;;;143734;570;46022;-88
2021/05/12 08:11:20;;;;;;;5.05;1.48;;;;;;;;;;143734;677;46012;-90
2021/05/12 08:14:29;;;;;;;;;;;;;;;;;;;;;
2021/05/12 08:17:34;;;;;;;7.53;1.98;;;;;;;;;;143740;613;45020;-84
2021/05/12 08:20:13;;;;;;;5.68;1.77;;;;;;;;;;143737;681;46022;-84
2021/05/12 08:22:50;;;;;;;4.00;1.75;;;;;;;;;;143738;566;45867;-85
2021/05/12 08:25:18;;;;;;;4.10;1.70;;;;;;;;;;143737;613;46021;-87
2021/05/12 08:27:45;;;;;;;5.20;1.45;;;;;;;;;;143736;572;46018;-86
2021/05/12 08:30:12;;;;;;;17.42;2.55;;;;;;;;;;143732;586;47020;-86
2021/05/12 08:32:39;;;;;;;7.35;2.00;;;;;;;;;;143732;589;46013;-86
2021/05/12 08:35:06;;;;;;;5.68;1.25;;;;;;;;;;143736;661;46014;-86
2021/05/12 08:37:33;;;;;;;6.85;1.55;;;;;;;;;;143734;565;46020;-89
2021/05/12 08:40:00;;;;;;;4.82;1.60;;;;;;;;;;143733;566;47021;-88
2021/05/12 08:42:39;;;;;;;3.55;1.45;;;;;;;;;;143732;641;46014;-88
2021/05/12 08:45:25;;;;;;;4.60;1.52;;;;;;;;;;143733;677;46022;-87
2021/05/12 08:48:19;;;;;;;;;;;;;;;;;;;;;
2021/05/12 08:50:47;;;;;;;4.37;1.50;;;;;;;;;;143734;661;46024;-88
2021/05/12 08:53:15;;;;;;;5.95;1.95;;;;;;;;;;143733;569;46012;-88
2021/05/12 08:55:43;;;;;;;3.72;1.40;;;;;;;;;;143740;608;46020;-85
2021/05/12 08:58:13;;;;;;;6.45;1.48;;;;;;;;;;143736;584;46012;-86
2021/05/12 09:00:41;;;;;;;10.25;1.98;;;;;;;;;;143737;570;45026;-87
2021/05/12 09:03:09;;;;;;;13.80;2.83;;;;;;;;;;143736;569;46021;-86
2021/05/12 09:05:36;;;;;;;5.03;1.75;;;;;;;;;;143735;566;46020;-87
2021/05/12 09:08:04;;;;;;;10.10;1.48;;;;;;;;;;143737;631;46018;-87
2021/05/12 09:10:31;;;;;;;8.00;1.80;;;;;;;;;;143735;648;46021;-87
2021/05/12 09:13:00;;;;;;;5.75;2.40;;;;;;;;;;143736;635;46012;-86
2021/05/12 09:15:27;;;;;;;9.93;1.67;;;;;;;;;;143736;585;46020;-87
2021/05/12 09:17:56;;;;;;;6.60;1.30;;;;;;;;;;143736;645;46013;-88
2021/05/12 09:20:27;;;;;;;4.80;1.35;;;;;;;;;;143735;564;47020;-87
2021/05/12 09:23:17;;;;;;;4.57;1.15;;;;;;;;;;143734;570;46015;-87
2021/05/12 09:25:56;;;;;;;5.50;1.10;;;;;;;;;;143737;564;46020;-87
2021/05/12 09:28:27;;;;;;;4.93;1.42;;;;;;;;;;143737;699;46012;-86
2021/05/12 09:31:14;;;;;;;6.30;1.05;;;;;;;;;;143734;631;47022;-88
2021/05/12 09:33:45;;;;;;;2.37;1.05;;;;;;;;;;143733;585;46014;-88
2021/05/12 09:36:28;;;;;;;2.12;1.12;;;;;;;;;;143737;606;46020;-87
2021/05/12 09:38:55;;;;;;;3.45;1.27;;;;;;;;;;143738;567;46045;-86
2021/05/12 09:41:34;;;;;;;5.65;1.30;;;;;;;;;;143733;608;46028;-86
2021/05/12 09:44:03;;;;;;;4.85;1.73;;;;;;;;;;143733;591;47012;-87
2021/05/12 09:46:40;;;;;;;4.37;1.17;;;;;;;;;;143736;628;46021;-88
2021/05/12 09:49:09;;;;;;;3.45;2.08;;;;;;;;;;143735;658;46012;-88
2021/05/12 09:51:48;;;;;;;5.53;1.55;;;;;;;;;;143734;649;47022;-88
2021/05/12 09:54:20;;;;;;;3.50;1.73;;;;;;;;;;143734;567;46013;-89
2021/05/12 09:56:53;;;;;;;6.18;1.00;;;;;;;;;;143733;571;47020;-88
2021/05/12 09:59:21;;;;;;;6.18;1.70;;;;;;;;;;143734;565;46020;-85
2021/05/12 10:02:00;;;;;;;5.22;1.08;;;;;;;;;;143734;565;46049;-88
2021/05/12 10:04:44;;;;;;;4.20;1.37;;;;;;;;;;143734;634;46012;-89
2021/05/12 10:07:25;;;;;;;6.85;1.33;;;;;;;;;;143735;581;46047;-88
2021/05/12 10:09:54;;;;;;;5.47;1.40;;;;;;;;;;143736;664;46012;-86
2021/05/12 10:12:27;;;;;;;2.92;1.35;;;;;;;;;;143736;564;46014;-85
2021/05/12 10:14:58;;;;;;;4.62;1.35;;;;;;;;;;143734;678;46020;-85
2021/05/12 10:17:26;;;;;;;9.05;1.17;;;;;;;;;;143735;598;46021;-85
2021/05/12 10:19:53;;;;;;;5.85;1.45;;;;;;;;;;143737;677;46020;-88
2021/05/12 10:22:24;;;;;;;5.03;0.98;;;;;;;;;;143732;637;47020;-87
2021/05/12 10:24:52;;;;;;;3.28;1.27;;;;;;;;;;143734;650;46021;-88
2021/05/12 10:27:30;;;;;;;7.43;1.52;;;;;;;;;;143735;636;47020;-86
2021/05/12 10:30:16;;;;;;;4.60;1.75;;;;;;;;;;143735;689;46020;-85
2021/05/12 10:32:51;;;;;;;3.28;1.35;;;;;;;;;;143734;564;46023;-86
2021/05/12 10:35:38;;;;;;;3.42;1.30;;;;;;;;;;143734;621;46012;-88
2021/05/12 10:38:10;;;;;;;3.25;1.42;;;;;;;;;;143734;604;47020;-88
2021/05/12 10:40:40;;;;;;;8.00;1.25;;;;;;;;;;143736;564;46018;-88
2021/05/12 10:46:17;;;;;;;3.45;1.20;;;;;;;;;;143734;585;47020;-86
2021/05/12 10:48:48;;;;;;;2.78;1.23;;;;;;;;;;143737;574;46020;-86
2021/05/12 10:51:47;;;;;;;7.47;1.52;;;;;;;;;;143737;569;46018;-85
2021/05/12 10:54:16;;;;;;;3.40;1.15;;;;;;;;;;143734;614;47024;-87
2021/05/12 10:56:43;;;;;;;3.42;1.37;;;;;;;;;;143734;609;46020;-85
2021/05/12 10:59:11;;;;;;;9.43;1.20;;;;;;;;;;143737;685;46014;-86
2021/05/12 11:02:03;;;;;;;5.22;1.23;;;;;;;;;;143735;641;46013;-87
2021/05/12 11:04:30;;;;;;;4.22;1.10;;;;;;;;;;143732;646;47022;-87
2021/05/12 11:06:57;;;;;;;3.10;1.37;;;;;;;;;;143730;660;46012;-86
2021/05/12 11:09:42;;;;;;;1.60;0.90;;;;;;;;;;143737;569;46014;-88
2021/05/12 11:12:10;;;;;;;8.73;1.62;;;;;;;;;;143736;583;46012;-85
2021/05/12 11:14:38;;;;;;;14.85;1.37;;;;;;;;;;143734;565;47022;-86
2021/05/12 11:17:13;;;;;;;4.50;0.98;;;;;;;;;;143735;573;46012;-87
2021/05/12 11:20:11;;;;;;;3.10;1.20;;;;;;;;;;143735;606;46018;-86
2021/05/12 11:22:46;;;;;;;8.38;1.40;;;;;;;;;;143735;608;46014;-85
2021/05/12 11:25:38;;;;;;;7.40;1.27;;;;;;;;;;143734;659;47020;-88
2021/05/12 11:33:36;;;;;;;3.20;1.33;;;;;;;;;;143735;582;46020;-86
2021/05/12 11:36:14;;;;;;;3.47;1.35;;;;;;;;;;143731;575;47030;-86
2021/05/12 11:38:42;;;;;;;4.25;1.27;;;;;;;;;;143735;607;46012;-87
2021/05/12 11:41:17;;;;;;;7.37;1.02;;;;;;;;;;143735;587;46014;-86
2021/05/12 11:43:50;;;;;;;7.80;1.83;;;;;;;;;;143739;570;46012;-86
2021/05/12 11:46:41;;;;;;;2.70;1.00;;;;;;;;;;143733;595;47022;-87
2021/05/12 11:49:13;;;;;;;6.57;1.20;;;;;;;;;;143732;644;46919;-88
2021/05/12 11:51:45;;;;;;;3.78;1.12;;;;;;;;;;143736;623;46020;-87
2021/05/12 11:54:20;;;;;;;3.20;1.10;;;;;;;;;;143736;603;46018;-87
2021/05/12 11:56:51;;;;;;;4.80;0.95;;;;;;;;;;143732;569;47020;-87
2021/05/12 11:59:21;;;;;;;9.50;1.40;;;;;;;;;;143731;592;46919;-85
2021/05/12 12:01:55;;;;;;;13.30;1.17;;;;;;;;;;143735;608;46021;-87
2021/05/12 12:04:30;;;;;;;4.85;1.17;;;;;;;;;;143735;574;46012;-86
2021/05/12 12:06:58;;;;;;;3.80;1.27;;;;;;;;;;143734;581;46022;-87
2021/05/12 12:09:24;;;;;;;5.47;1.30;;;;;;;;;;143735;571;46012;-86
2021/05/12 12:11:51;;;;;;;5.20;1.00;;;;;;;;;;143737;591;46034;-85
2021/05/12 12:14:18;;;;;;;5.22;1.00;;;;;;;;;;143737;570;46012;-87
2021/05/12 12:16:46;;;;;;;6.80;2.22;;;;;;;;;;143737;578;46020;-87
2021/05/12 12:19:20;;;;;;;10.32;2.03;;;;;;;;;;143736;574;46020;-88
2021/05/12 12:21:51;;;;;;;6.35;1.40;;;;;;;;;;143733;578;47020;-88
2021/05/12 12:24:22;;;;;;;11.35;1.40;;;;;;;;;;143736;616;46012;-87
2021/05/12 12:26:54;;;;;;;2.10;1.27;;;;;;;;;;143733;663;47022;-85
2021/05/12 12:29:26;;;;;;;7.80;1.30;;;;;;;;;;143732;589;46013;-86
2021/05/12 12:32:05;;;;;;;5.22;1.23;;;;;;;;;;143734;591;47038;-86
2021/05/12 12:34:42;;;;;;;7.32;1.20;;;;;;;;;;143736;569;46018;-86
2021/05/12 12:37:11;;;;;;;3.75;1.50;;;;;;;;;;143733;575;47022;-84
2021/05/12 12:40:03;;;;;;;6.97;1.58;;;;;;;;;;143734;571;46012;-85
2021/05/12 12:42:45;;;;;;;7.87;1.30;;;;;;;;;;143734;585;47020;-85
2021/05/12 12:45:30;;;;;;;5.05;1.35;;;;;;;;;;143735;631;46013;-85
2021/05/12 12:48:08;;;;;;;6.93;1.30;;;;;;;;;;143732;569;47022;-85
2021/05/12 12:50:37;;;;;;;2.62;1.20;;;;;;;;;;143733;603;46014;-85
2021/05/12 12:53:06;;;;;;;4.82;1.52;;;;;;;;;;143735;577;46021;-84
2021/05/12 12:55:37;;;;;;;11.43;1.80;;;;;;;;;;143735;680;46012;-85
2021/05/12 12:58:11;;;;;;;10.90;1.98;;;;;;;;;;143734;604;47022;-84
2021/05/12 13:00:41;;;;;;;2.75;1.05;;;;;;;;;;143735;622;46021;-85
2021/05/12 13:03:36;;;;;;;2.08;1.10;;;;;;;;;;143735;620;46020;-85
2021/05/12 13:06:03;;;;;;;2.95;1.75;;;;;;;;;;143737;571;45021;-84
2021/05/12 13:08:39;;;;;;;7.03;1.55;;;;;;;;;;143734;607;46015;-85
2021/05/12 13:11:11;;;;;;;8.48;1.40;;;;;;;;;;143735;604;46020;-87
2021/05/12 13:14:04;;;;;;;;;;;;;;;;;;;;;
2021/05/12 13:16:43;;;;;;;11.60;1.30;;;;;;;;;;143735;583;47018;-85
2021/05/12 13:19:10;;;;;;;4.87;2.05;;;;;;;;;;143734;566;46022;-85
2021/05/12 13:21:58;;;;;;;3.35;1.30;;;;;;;;;;143734;639;46021;-86
2021/05/12 13:24:33;;;;;;;3.00;1.42;;;;;;;;;;143734;635;46020;-87
2021/05/12 13:27:05;;;;;;;3.30;1.02;;;;;;;;;;143736;623;46020;-84
2021/05/12 13:29:35;;;;;;;3.80;1.55;;;;;;;;;;143733;573;47021;-86
2021/05/12 13:32:03;;;;;;;8.25;1.42;;;;;;;;;;143735;574;46020;-86
2021/05/12 13:34:30;;;;;;;3.55;1.10;;;;;;;;;;143736;564;46020;-84
2021/05/12 13:36:57;;;;;;;9.60;1.17;;;;;;;;;;143731;590;47020;-84
2021/05/12 13:39:25;;;;;;;7.05;1.27;;;;;;;;;;143730;593;47023;-86
2021/05/12 13:41:52;;;;;;;4.00;1.40;;;;;;;;;;143731;582;46012;-86
2021/05/12 13:44:20;;;;;;;8.23;1.62;;;;;;;;;;143736;570;46020;-84
2021/05/12 13:46:47;;;;;;;6.78;1.40;;;;;;;;;;143735;636;46012;-86
2021/05/12 13:49:18;;;;;;;9.48;2.15;;;;;;;;;;143736;576;46016;-86
2021/05/12 13:51:52;;;;;;;10.32;1.55;;;;;;;;;;143734;566;46014;-86
2021/05/12 13:54:25;;;;;;;4.57;1.23;;;;;;;;;;143733;617;46014;-86
2021/05/12 14:05:04;;;;;;;8.18;1.48;;;;;;;;;;143733;612;46046;-84
2021/05/12 14:07:37;;;;;;;9.07;1.55;;;;;;;;;;143733;595;47021;-86
2021/05/12 14:10:06;;;;;;;2.80;1.35;;;;;;;;;;143733;595;46022;-85
2021/05/12 14:12:40;;;;;;;6.40;1.67;;;;;;;;;;143732;583;46020;-85
2021/05/12 14:18:07;;;;;;;3.65;1.20;;;;;;;;;;143735;588;46020;-83
2021/05/12 14:20:38;;;;;;;2.25;1.00;;;;;;;;;;143732;576;46022;-84
2021/05/12 14:23:09;;;;;;;4.47;1.53;;;;;;;;;;143733;710;46021;-84
2021/05/12 14:25:37;;;;;;;3.53;1.80;;;;;;;;;;143736;598;46014;-85
2021/05/12 14:28:05;;;;;;;4.55;1.62;;;;;;;;;;143733;660;46020;-84
2021/05/12 14:30:42;;;;;;;5.03;1.10;;;;;;;;;;143730;564;47023;-84
2021/05/12 14:33:13;;;;;;;4.03;1.27;;;;;;;;;;143728;602;46020;-84
2021/05/12 14:35:40;;;;;;;3.00;1.40;;;;;;;;;;143735;591;46020;-84
2021/05/12 14:38:08;;;;;;;8.85;1.05;;;;;;;;;;143734;787;46020;-85
2021/05/12 14:40:35;;;;;;;5.53;1.40;;;;;;;;;;143733;610;46020;-85
2021/05/12 14:43:02;;;;;;;7.05;2.33;;;;;;;;;;143731;665;46015;-85
2021/05/12 14:45:29;;;;;;;11.98;1.98;;;;;;;;;;143731;603;47021;-85
2021/05/12 14:48:04;;;;;;;2.67;1.25;;;;;;;;;;143736;588;46012;-85
2021/05/12 14:50:32;;;;;;;6.10;1.73;;;;;;;;;;143732;579;46014;-87
2021/05/12 14:53:05;;;;;;;8.43;1.90;;;;;;;;;;143731;625;46020;-86
2021/05/12 14:55:48;;;;;;;5.68;1.37;;;;;;;;;;143733;634;46020;-86
2021/05/12 14:58:36;;;;;;;;;;;;;;;;;;143738;975;47020;-87
2021/05/12 15:06:53;;;;;;;8.20;1.50;;;;;;;;;;143732;591;47013;-87
2021/05/12 15:09:20;;;;;;;5.37;1.73;;;;;;;;;;143733;592;46020;-87
2021/05/12 15:11:48;;;;;;;3.58;1.55;;;;;;;;;;143732;563;46022;-87
2021/05/12 15:14:15;;;;;;;8.15;1.75;;;;;;;;;;143730;589;46011;-87
2021/05/12 15:16:42;;;;;;;7.57;1.48;;;;;;;;;;143733;585;46020;-86
2021/05/12 15:19:09;;;;;;;1.85;0.95;;;;;;;;;;143734;564;46010;-87
2021/05/12 15:21:35;;;;;;;3.10;1.30;;;;;;;;;;143732;662;47020;-86
2021/05/12 15:24:02;;;;;;;4.72;1.52;;;;;;;;;;143734;610;46020;-87
2021/05/12 15:26:29;;;;;;;7.82;0.90;;;;;;;;;;143734;576;46020;-87
2021/05/12 15:28:58;;;;;;;4.47;1.20;;;;;;;;;;143734;674;46021;-87
2021/05/12 15:31:25;;;;;;;3.42;1.12;;;;;;;;;;143731;572;47023;-87
2021/05/12 15:33:53;;;;;;;2.97;1.70;;;;;;;;;;143731;582;46010;-87
2021/05/12 15:36:19;;;;;;;5.43;1.45;;;;;;;;;;143734;590;46021;-86
2021/05/12 15:38:46;;;;;;;7.87;1.50;;;;;;;;;;143733;606;46010;-88
2021/05/12 15:41:13;;;;;;;3.37;1.02;;;;;;;;;;143732;580;46014;-86